createdAt,value
2018-09-05T00:00:41.994Z,4.20
2018-09-05T00:01:41.877Z,3.70
2018-09-05T00:02:41.864Z,3.90
2018-09-05T00:03:41.872Z,3.60
2018-09-05T00:04:41.874Z,3.30
2018-09-05T00:05:42.062Z,3.40
2018-09-05T00:06:41.896Z,3.30
2018-09-05T00:07:41.943Z,4.10
2018-09-05T00:08:41.926Z,4.30
2018-09-05T00:09:41.942Z,4.40
2018-09-05T00:10:42.083Z,3.10
2018-09-05T00:11:41.975Z,4.30
2018-09-05T00:12:41.971Z,3.70
2018-09-05T00:13:42.087Z,3.60
2018-09-05T00:14:42.095Z,3.90
2018-09-05T00:15:42.103Z,3.50
2018-09-05T00:16:42.118Z,4.30
2018-09-05T00:17:42.009Z,4.10
2018-09-05T00:18:42.014Z,3.90
2018-09-05T00:19:42.028Z,3.90
2018-09-05T00:20:42.207Z,3.80
2018-09-05T00:21:42.049Z,3.70
2018-09-05T00:22:42.052Z,4.10
2018-09-05T00:23:42.069Z,4.20
2018-09-05T00:24:42.193Z,3.90
2018-09-05T00:25:42.352Z,3.90
2018-09-05T00:26:42.114Z,5.00
2018-09-05T00:27:42.118Z,4.10
2018-09-05T00:28:42.112Z,4.30
2018-09-05T00:29:42.125Z,4.30
2018-09-05T00:30:42.257Z,4.10
2018-09-05T00:31:42.131Z,4.30
2018-09-05T00:32:42.169Z,4.60
2018-09-05T00:33:42.153Z,4.20
2018-09-05T00:34:42.185Z,4.20
2018-09-05T00:35:42.348Z,4.70
2018-09-05T00:36:42.306Z,4.50
2018-09-05T00:37:42.192Z,4.50
2018-09-05T00:38:42.333Z,4.10
2018-09-05T00:39:42.238Z,4.50
2018-09-05T00:40:42.401Z,4.40
2018-09-05T00:41:42.277Z,4.50
2018-09-05T00:42:42.285Z,4.10
2018-09-05T00:43:42.247Z,4.30
2018-09-05T00:44:42.417Z,4.30
2018-09-05T00:45:42.276Z,4.00
2018-09-05T00:46:42.275Z,4.20
2018-09-05T00:47:42.300Z,4.60
2018-09-05T00:48:42.295Z,4.60
2018-09-05T00:49:42.476Z,4.10
2018-09-05T00:50:42.327Z,4.20
2018-09-05T00:51:42.350Z,4.70
2018-09-05T00:52:42.351Z,4.40
2018-09-05T00:53:42.365Z,4.30
2018-09-05T00:54:42.636Z,4.00
2018-09-05T00:55:42.416Z,4.10
2018-09-05T00:56:42.410Z,4.40
2018-09-05T00:57:42.412Z,4.90
2018-09-05T00:58:42.523Z,4.20
2018-09-05T00:59:42.460Z,4.10
2018-09-05T01:00:42.460Z,4.60
2018-09-05T01:01:42.448Z,4.50
2018-09-05T01:02:42.451Z,4.00
2018-09-05T01:03:42.608Z,4.60
2018-09-05T01:04:42.476Z,4.60
2018-09-05T01:05:42.462Z,3.90
2018-09-05T01:06:42.497Z,4.20
2018-09-05T01:07:42.485Z,4.20
2018-09-05T01:08:42.675Z,4.20
2018-09-05T01:09:42.542Z,4.80
2018-09-05T01:10:42.503Z,4.70
2018-09-05T01:11:42.518Z,4.20
2018-09-05T01:12:42.568Z,3.70
2018-09-05T01:13:42.705Z,4.50
2018-09-05T01:14:42.567Z,4.70
2018-09-05T01:15:42.575Z,4.60
2018-09-05T01:16:42.597Z,4.70
2018-09-05T01:17:42.603Z,4.30
2018-09-05T01:18:42.741Z,4.50
2018-09-05T01:19:42.616Z,4.60
2018-09-05T01:20:42.628Z,4.30
2018-09-05T01:21:42.628Z,4.70
2018-09-05T01:22:42.649Z,4.30
2018-09-05T01:23:42.784Z,5.10
2018-09-05T01:24:42.672Z,5.00
2018-09-05T01:25:42.673Z,4.50
2018-09-05T01:26:42.796Z,5.20
2018-09-05T01:27:42.673Z,4.50
2018-09-05T01:28:42.786Z,5.10
2018-09-05T01:29:42.711Z,5.00
2018-09-05T01:30:42.857Z,4.70
2018-09-05T01:31:42.724Z,5.50
2018-09-05T01:32:42.721Z,4.20
2018-09-05T01:33:42.823Z,4.50
2018-09-05T01:34:42.762Z,4.20
2018-09-05T01:35:42.891Z,4.90
2018-09-05T01:36:42.781Z,5.20
2018-09-05T01:37:42.775Z,5.10
2018-09-05T01:38:42.797Z,5.00
2018-09-05T01:39:42.833Z,4.90
2018-09-05T01:40:42.966Z,4.40
2018-09-05T01:41:42.836Z,5.30
2018-09-05T01:42:42.824Z,4.80
2018-09-05T01:43:42.847Z,4.60
2018-09-05T01:44:42.840Z,5.00
2018-09-05T01:45:43.015Z,4.80
2018-09-05T01:46:42.992Z,4.70
2018-09-05T01:47:43.007Z,5.10
2018-09-05T01:48:42.910Z,5.80
2018-09-05T01:49:42.969Z,5.70
2018-09-05T01:50:43.057Z,5.30
2018-09-05T01:51:42.929Z,5.10
2018-09-05T01:52:42.941Z,4.80
2018-09-05T01:53:42.954Z,4.90
2018-09-05T01:54:42.961Z,4.80
2018-09-05T01:55:43.104Z,4.60
2018-09-05T01:56:42.963Z,5.00
2018-09-05T01:57:42.996Z,4.90
2018-09-05T01:58:42.985Z,5.00
2018-09-05T01:59:43.042Z,4.60
2018-09-05T02:00:43.156Z,4.70
2018-09-05T02:01:43.012Z,5.20
2018-09-05T02:02:43.050Z,4.70
2018-09-05T02:03:43.053Z,5.10
2018-09-05T02:04:43.051Z,4.70
2018-09-05T02:05:43.210Z,4.90
2018-09-05T02:06:43.079Z,4.80
2018-09-05T02:07:43.119Z,4.60
2018-09-05T02:08:43.100Z,6.60
2018-09-05T02:09:43.134Z,7.40
2018-09-05T02:10:43.311Z,11.20
2018-09-05T02:11:43.122Z,8.50
2018-09-05T02:12:43.133Z,5.40
2018-09-05T02:13:43.156Z,5.90
2018-09-05T02:14:43.277Z,5.00
2018-09-05T02:15:43.481Z,5.70
2018-09-05T02:16:43.173Z,5.10
2018-09-05T02:17:43.300Z,5.50
2018-09-05T02:18:43.313Z,5.10
2018-09-05T02:19:43.324Z,5.20
2018-09-05T02:20:43.364Z,4.60
2018-09-05T02:21:43.218Z,4.90
2018-09-05T02:22:43.356Z,5.00
2018-09-05T02:23:43.256Z,5.20
2018-09-05T02:24:43.377Z,4.30
2018-09-05T02:25:43.434Z,4.90
2018-09-05T02:26:43.268Z,4.70
2018-09-05T02:27:43.404Z,4.80
2018-09-05T02:28:43.564Z,3.90
2018-09-05T02:29:43.424Z,3.90
2018-09-05T02:30:43.311Z,4.20
2018-09-05T02:31:43.321Z,5.00
2018-09-05T02:32:43.332Z,5.10
2018-09-05T02:33:43.548Z,4.20
2018-09-05T02:34:43.473Z,5.30
2018-09-05T02:35:43.348Z,5.00
2018-09-05T02:36:43.488Z,5.00
2018-09-05T02:37:43.368Z,5.20
2018-09-05T02:38:43.588Z,4.90
2018-09-05T02:39:43.520Z,4.00
2018-09-05T02:40:43.439Z,4.30
2018-09-05T02:41:43.541Z,4.30
2018-09-05T02:42:43.426Z,4.70
2018-09-05T02:43:43.584Z,4.50
2018-09-05T02:44:43.572Z,4.80
2018-09-05T02:45:43.447Z,4.90
2018-09-05T02:46:43.474Z,5.10
2018-09-05T02:47:43.471Z,5.20
2018-09-05T02:48:43.541Z,4.60
2018-09-05T02:49:43.499Z,4.70
2018-09-05T02:50:43.523Z,4.40
2018-09-05T02:51:43.718Z,5.10
2018-09-05T02:52:43.648Z,5.40
2018-09-05T02:54:43.542Z,4.50
2018-09-05T02:55:43.678Z,4.20
2018-09-05T02:56:43.753Z,4.60
2018-09-05T02:57:43.697Z,3.80
2018-09-05T02:58:43.708Z,4.40
2018-09-05T02:59:43.719Z,3.90
2018-09-05T03:00:43.727Z,4.10
2018-09-05T03:01:43.893Z,4.00
2018-09-05T03:02:43.641Z,4.10
2018-09-05T03:03:43.694Z,3.60
2018-09-05T03:04:43.764Z,4.30
2018-09-05T03:05:43.773Z,4.30
2018-09-05T03:06:43.903Z,4.70
2018-09-05T03:07:43.675Z,3.70
2018-09-05T03:08:43.672Z,4.10
2018-09-05T03:09:43.693Z,3.50
2018-09-05T03:10:43.706Z,3.90
2018-09-05T03:11:43.760Z,3.50
2018-09-05T03:12:43.718Z,3.70
2018-09-05T03:13:43.732Z,4.70
2018-09-05T03:14:44.113Z,3.90
2018-09-05T03:15:43.758Z,4.50
2018-09-05T03:16:43.760Z,3.90
2018-09-05T03:17:43.768Z,3.70
2018-09-05T03:18:43.942Z,3.90
2018-09-05T03:19:44.113Z,5.10
2018-09-05T03:20:43.924Z,4.00
2018-09-05T03:21:43.812Z,4.40
2018-09-05T03:22:43.823Z,4.80
2018-09-05T03:23:43.948Z,4.30
2018-09-05T03:24:43.888Z,4.30
2018-09-05T03:25:43.967Z,4.70
2018-09-05T03:26:43.982Z,4.20
2018-09-05T03:27:43.875Z,4.60
2018-09-05T03:28:44.138Z,3.60
2018-09-05T03:29:43.896Z,4.00
2018-09-05T03:30:44.025Z,3.50
2018-09-05T03:31:43.942Z,4.90
2018-09-05T03:32:44.151Z,4.40
2018-09-05T03:33:44.102Z,4.90
2018-09-05T03:34:43.933Z,4.20
2018-09-05T03:35:44.151Z,4.80
2018-09-05T03:36:43.956Z,4.20
2018-09-05T03:37:44.087Z,5.00
2018-09-05T03:38:43.966Z,3.80
2018-09-05T03:39:43.999Z,4.60
2018-09-05T03:40:44.320Z,4.00
2018-09-05T03:41:44.003Z,4.10
2018-09-05T03:42:44.030Z,3.80
2018-09-05T03:43:44.034Z,4.00
2018-09-05T03:44:44.162Z,4.30
2018-09-05T03:45:44.049Z,4.60
2018-09-05T03:46:44.263Z,4.50
2018-09-05T03:47:44.062Z,3.80
2018-09-05T03:48:44.079Z,4.30
2018-09-05T03:49:44.105Z,4.70
2018-09-05T03:50:44.089Z,4.20
2018-09-05T03:51:44.376Z,3.90
2018-09-05T03:52:44.240Z,4.50
2018-09-05T03:53:44.252Z,4.40
2018-09-05T03:54:44.262Z,4.10
2018-09-05T03:55:44.269Z,4.20
2018-09-05T03:56:44.425Z,4.20
2018-09-05T03:57:44.167Z,3.70
2018-09-05T03:58:44.178Z,4.80
2018-09-05T03:59:44.179Z,4.50
2018-09-05T04:00:44.321Z,4.80
2018-09-05T04:01:44.361Z,3.90
2018-09-05T04:02:44.404Z,4.20
2018-09-05T04:03:44.349Z,3.80
2018-09-05T04:04:44.361Z,4.40
2018-09-05T04:05:44.250Z,3.80
2018-09-05T04:06:44.523Z,4.90
2018-09-05T04:07:44.266Z,4.20
2018-09-05T04:08:44.317Z,3.90
2018-09-05T04:09:44.408Z,4.10
2018-09-05T04:10:44.412Z,3.90
2018-09-05T04:11:44.459Z,4.30
2018-09-05T04:12:44.439Z,4.60
2018-09-05T04:13:44.448Z,4.10
2018-09-05T04:14:44.332Z,4.40
2018-09-05T04:15:44.345Z,4.10
2018-09-05T04:16:44.548Z,4.00
2018-09-05T04:17:44.363Z,4.50
2018-09-05T04:18:44.373Z,3.90
2018-09-05T04:19:44.396Z,4.40
2018-09-05T04:20:44.519Z,4.10
2018-09-05T04:21:44.604Z,3.90
2018-09-05T04:22:44.421Z,3.50
2018-09-05T04:23:44.541Z,3.70
2018-09-05T04:24:44.557Z,3.80
2018-09-05T04:25:44.480Z,3.20
2018-09-05T04:26:44.494Z,3.40
2018-09-05T04:27:44.706Z,3.80
2018-09-05T04:28:44.475Z,3.80
2018-09-05T04:29:44.504Z,4.00
2018-09-05T04:30:44.490Z,3.90
2018-09-05T04:31:44.505Z,4.00
2018-09-05T04:32:44.716Z,4.30
2018-09-05T04:33:44.642Z,3.50
2018-09-05T04:34:44.525Z,4.20
2018-09-05T04:35:44.560Z,4.10
2018-09-05T04:36:44.552Z,4.00
2018-09-05T04:37:44.703Z,3.50
2018-09-05T04:38:44.582Z,3.50
2018-09-05T04:39:44.702Z,3.50
2018-09-05T04:40:44.594Z,3.70
2018-09-05T04:41:44.595Z,4.00
2018-09-05T04:42:44.810Z,4.20
2018-09-05T04:43:44.623Z,4.20
2018-09-05T04:44:44.624Z,3.70
2018-09-05T04:45:44.758Z,4.10
2018-09-05T04:46:44.656Z,3.90
2018-09-05T04:47:44.861Z,4.80
2018-09-05T04:48:44.670Z,4.20
2018-09-05T04:49:44.676Z,4.60
2018-09-05T04:50:44.694Z,4.00
2018-09-05T04:51:44.701Z,4.30
2018-09-05T04:52:44.950Z,4.50
2018-09-05T04:53:44.709Z,4.00
2018-09-05T04:54:44.847Z,4.00
2018-09-05T04:55:44.856Z,4.00
2018-09-05T04:56:44.869Z,3.90
2018-09-05T04:57:44.955Z,3.80
2018-09-05T04:58:44.773Z,3.90
2018-09-05T04:59:44.896Z,3.50
2018-09-05T05:00:44.908Z,4.10
2018-09-05T05:01:44.779Z,4.70
2018-09-05T05:02:45.010Z,4.40
2018-09-05T05:03:44.860Z,3.90
2018-09-05T05:04:44.937Z,3.70
2018-09-05T05:05:44.994Z,3.70
2018-09-05T05:06:44.959Z,3.70
2018-09-05T05:07:45.114Z,3.80
2018-09-05T05:08:44.858Z,4.00
2018-09-05T05:09:44.980Z,3.70
2018-09-05T05:10:44.874Z,3.70
2018-09-05T05:11:44.885Z,3.80
2018-09-05T05:12:44.983Z,3.20
2018-09-05T05:13:45.042Z,3.90
2018-09-05T05:14:45.037Z,3.40
2018-09-05T05:15:44.933Z,3.90
2018-09-05T05:16:45.048Z,3.70
2018-09-05T05:17:45.056Z,3.70
2018-09-05T05:18:45.213Z,3.50
2018-09-05T05:19:44.943Z,3.90
2018-09-05T05:20:45.085Z,3.70
2018-09-05T05:21:44.976Z,3.80
2018-09-05T05:22:45.025Z,4.00
2018-09-05T05:23:45.740Z,4.00
2018-09-05T05:25:45.064Z,3.20
2018-09-05T05:26:45.077Z,4.10
2018-09-05T05:27:45.071Z,3.70
2018-09-05T05:28:45.121Z,4.60
2018-09-05T05:30:45.107Z,4.70
2018-09-05T05:31:45.106Z,4.90
2018-09-05T05:33:45.112Z,4.20
2018-09-05T05:34:45.139Z,4.10
2018-09-05T05:36:45.140Z,3.70
2018-09-05T05:37:45.161Z,3.50
2018-09-05T05:38:45.181Z,3.60
2018-09-05T05:39:45.173Z,4.20
2018-09-05T05:40:45.177Z,4.60
2018-09-05T05:41:45.519Z,3.70
2018-09-05T05:44:45.223Z,3.90
2018-09-05T05:45:45.237Z,4.20
2018-09-05T05:46:45.385Z,3.90
2018-09-05T05:47:45.238Z,4.30
2018-09-05T05:48:45.272Z,4.90
2018-09-05T05:49:45.258Z,4.80
2018-09-05T05:50:45.461Z,3.80
2018-09-05T05:51:45.285Z,4.90
2018-09-05T05:52:45.289Z,4.30
2018-09-05T05:53:45.292Z,4.90
2018-09-05T05:54:45.312Z,4.50
2018-09-05T05:55:45.477Z,4.70
2018-09-05T05:56:45.371Z,4.80
2018-09-05T05:57:45.342Z,4.80
2018-09-05T05:59:45.426Z,4.20
2018-09-05T06:00:45.467Z,4.20
2018-09-05T06:01:45.445Z,4.70
2018-09-05T06:02:45.451Z,4.40
2018-09-05T06:03:45.334Z,4.20
2018-09-05T06:04:45.332Z,3.60
2018-09-05T06:05:45.504Z,3.80
2018-09-05T06:06:45.399Z,4.40
2018-09-05T06:07:45.406Z,4.20
2018-09-05T06:08:45.373Z,4.30
2018-09-05T06:09:45.400Z,4.10
2018-09-05T06:10:45.671Z,5.10
2018-09-05T06:11:45.404Z,4.50
2018-09-05T06:12:45.411Z,4.00
2018-09-05T06:13:45.413Z,4.70
2018-09-05T06:14:45.555Z,4.30
2018-09-05T06:15:45.581Z,4.40
2018-09-05T06:16:45.501Z,4.50
2018-09-05T06:17:45.687Z,4.80
2018-09-05T06:18:45.482Z,5.20
2018-09-05T06:19:45.472Z,4.20
2018-09-05T06:20:45.751Z,4.90
2018-09-05T06:21:45.515Z,4.40
2018-09-05T06:22:45.494Z,4.40
2018-09-05T06:23:45.505Z,4.20
2018-09-05T06:24:45.508Z,4.60
2018-09-05T06:25:45.726Z,4.20
2018-09-05T06:26:45.656Z,4.30
2018-09-05T06:27:45.752Z,4.80
2018-09-05T06:28:45.675Z,4.30
2018-09-05T06:29:45.563Z,4.30
2018-09-05T06:30:46.006Z,4.40
2018-09-05T06:31:45.699Z,4.70
2018-09-05T06:32:45.580Z,4.00
2018-09-05T06:33:45.584Z,4.20
2018-09-05T06:34:45.719Z,4.50
2018-09-05T06:35:45.622Z,4.10
2018-09-05T06:36:45.803Z,4.20
2018-09-05T06:37:45.629Z,4.10
2018-09-05T06:38:45.636Z,4.10
2018-09-05T06:39:45.763Z,4.40
2018-09-05T06:40:45.781Z,4.10
2018-09-05T06:41:45.821Z,5.00
2018-09-05T06:42:45.793Z,4.50
2018-09-05T06:43:45.691Z,4.10
2018-09-05T06:44:45.691Z,4.70
2018-09-05T06:45:45.699Z,4.90
2018-09-05T06:46:45.855Z,4.20
2018-09-05T06:47:45.837Z,4.70
2018-09-05T06:48:45.846Z,4.30
2018-09-05T06:49:45.855Z,4.50
2018-09-05T06:50:45.868Z,4.40
2018-09-05T06:51:45.797Z,4.20
2018-09-05T06:52:45.884Z,4.50
2018-09-05T06:53:45.894Z,4.50
2018-09-05T06:54:45.774Z,4.50
2018-09-05T06:55:46.062Z,4.80
2018-09-05T06:56:45.921Z,4.80
2018-09-05T06:57:45.805Z,4.00
2018-09-05T06:58:45.814Z,4.50
2018-09-05T06:59:45.944Z,4.00
2018-09-05T07:00:45.995Z,4.30
2018-09-05T07:01:45.841Z,4.30
2018-09-05T07:02:45.972Z,4.10
2018-09-05T07:03:45.988Z,4.30
2018-09-05T07:04:45.993Z,4.30
2018-09-05T07:05:46.153Z,4.90
2018-09-05T07:06:45.884Z,4.60
2018-09-05T07:07:45.887Z,4.90
2018-09-05T07:08:45.917Z,4.50
2018-09-05T07:09:46.036Z,4.40
2018-09-05T07:10:46.118Z,5.00
2018-09-05T07:11:45.937Z,5.00
2018-09-05T07:12:45.941Z,4.40
2018-09-05T07:13:46.067Z,4.10
2018-09-05T07:14:45.957Z,3.80
2018-09-05T07:15:46.119Z,4.40
2018-09-05T07:16:46.095Z,4.20
2018-09-05T07:17:45.984Z,4.40
2018-09-05T07:18:45.996Z,4.30
2018-09-05T07:19:45.998Z,4.40
2018-09-05T07:20:46.158Z,4.10
2018-09-05T07:21:46.019Z,4.50
2018-09-05T07:22:46.148Z,4.40
2018-09-05T07:23:46.040Z,4.30
2018-09-05T07:24:46.086Z,4.20
2018-09-05T07:25:46.206Z,4.60
2018-09-05T07:26:46.056Z,4.90
2018-09-05T07:27:46.192Z,4.40
2018-09-05T07:28:46.074Z,4.50
2018-09-05T07:29:46.208Z,3.60
2018-09-05T07:30:46.268Z,4.50
2018-09-05T07:31:46.227Z,4.40
2018-09-05T07:32:46.103Z,4.90
2018-09-05T07:33:46.243Z,4.40
2018-09-05T07:34:46.147Z,4.30
2018-09-05T07:35:46.522Z,5.10
2018-09-05T07:36:46.188Z,4.60
2018-09-05T07:37:46.162Z,4.30
2018-09-05T07:38:46.295Z,4.50
2018-09-05T07:39:46.187Z,4.50
2018-09-05T07:40:46.337Z,4.40
2018-09-05T07:41:46.320Z,4.30
2018-09-05T07:42:46.332Z,4.30
2018-09-05T07:43:46.398Z,4.50
2018-09-05T07:44:46.344Z,4.50
2018-09-05T07:45:46.402Z,4.10
2018-09-05T07:46:46.366Z,5.10
2018-09-05T07:47:46.249Z,3.90
2018-09-05T07:48:46.384Z,4.30
2018-09-05T07:49:46.414Z,3.90
2018-09-05T07:50:46.369Z,4.70
2018-09-05T07:51:46.403Z,4.90
2018-09-05T07:52:46.297Z,4.40
2018-09-05T07:53:46.338Z,4.40
2018-09-05T07:54:46.460Z,4.10
2018-09-05T07:55:46.321Z,4.20
2018-09-05T07:56:46.316Z,4.60
2018-09-05T07:57:46.340Z,5.00
2018-09-05T07:58:46.472Z,4.30
2018-09-05T07:59:46.631Z,4.20
2018-09-05T08:00:46.485Z,4.50
2018-09-05T08:01:46.368Z,4.20
2018-09-05T08:02:46.430Z,4.30
2018-09-05T08:03:46.396Z,4.20
2018-09-05T08:04:46.447Z,5.00
2018-09-05T08:05:46.410Z,5.30
2018-09-05T08:06:46.459Z,4.70
2018-09-05T08:07:46.697Z,5.00
2018-09-05T08:08:46.556Z,5.30
2018-09-05T08:09:46.566Z,4.40
2018-09-05T08:10:46.456Z,4.30
2018-09-05T08:11:46.485Z,5.30
2018-09-05T08:12:46.749Z,4.20
2018-09-05T08:13:46.599Z,4.50
2018-09-05T08:14:46.614Z,4.50
2018-09-05T08:15:46.491Z,4.80
2018-09-05T08:16:46.503Z,5.40
2018-09-05T08:17:46.664Z,4.70
2018-09-05T08:18:46.647Z,4.90
2018-09-05T08:19:46.531Z,4.60
2018-09-05T08:20:46.543Z,5.00
2018-09-05T08:21:46.569Z,5.60
2018-09-05T08:22:46.831Z,4.00
2018-09-05T08:23:46.569Z,5.30
2018-09-05T08:24:46.700Z,4.60
2018-09-05T08:25:46.710Z,4.50
2018-09-05T08:26:46.723Z,4.70
2018-09-05T08:27:46.746Z,5.00
2018-09-05T08:28:46.632Z,5.60
2018-09-05T08:29:46.616Z,4.40
2018-09-05T08:30:46.629Z,5.10
2018-09-05T08:31:46.766Z,5.00
2018-09-05T08:32:46.796Z,4.50
2018-09-05T08:33:46.700Z,4.70
2018-09-05T08:34:46.727Z,5.30
2018-09-05T08:35:46.877Z,5.80
2018-09-05T08:36:46.970Z,5.70
2018-09-05T08:37:46.992Z,4.40
2018-09-05T08:38:46.889Z,4.30
2018-09-05T08:39:46.761Z,4.70
2018-09-05T08:40:46.715Z,4.50
2018-09-05T08:41:46.911Z,4.20
2018-09-05T08:42:47.111Z,4.30
2018-09-05T08:43:46.944Z,5.20
2018-09-05T08:44:47.022Z,5.20
2018-09-05T08:45:47.102Z,4.20
2018-09-05T08:46:46.829Z,4.40
2018-09-05T08:47:47.123Z,5.00
2018-09-05T08:48:46.793Z,4.70
2018-09-05T08:49:46.813Z,4.20
2018-09-05T08:50:46.803Z,4.60
2018-09-05T08:51:46.941Z,4.60
2018-09-05T08:52:47.050Z,5.10
2018-09-05T08:53:46.832Z,4.80
2018-09-05T08:54:46.839Z,4.10
2018-09-05T08:55:46.994Z,5.40
2018-09-05T08:56:46.894Z,5.40
2018-09-05T08:57:47.088Z,5.40
2018-09-05T08:58:46.930Z,4.80
2018-09-05T08:59:46.885Z,4.90
2018-09-05T09:00:46.895Z,6.00
2018-09-05T09:01:46.893Z,4.40
2018-09-05T09:02:47.184Z,5.20
2018-09-05T09:03:46.931Z,5.70
2018-09-05T09:04:47.080Z,5.50
2018-09-05T09:05:46.931Z,5.70
2018-09-05T09:06:47.071Z,5.10
2018-09-05T09:07:46.999Z,4.60
2018-09-05T09:08:46.950Z,4.90
2018-09-05T09:09:46.959Z,5.50
2018-09-05T09:10:46.974Z,5.80
2018-09-05T09:11:47.193Z,6.00
2018-09-05T09:12:47.147Z,5.20
2018-09-05T09:13:47.124Z,5.50
2018-09-05T09:14:47.135Z,6.10
2018-09-05T09:15:47.029Z,5.60
2018-09-05T09:16:47.077Z,6.20
2018-09-05T09:17:47.182Z,6.70
2018-09-05T09:18:47.165Z,5.70
2018-09-05T09:19:47.046Z,6.50
2018-09-05T09:20:47.183Z,6.20
2018-09-05T09:21:47.070Z,5.50
2018-09-05T09:22:47.223Z,6.20
2018-09-05T09:23:47.205Z,6.30
2018-09-05T09:24:47.215Z,6.90
2018-09-05T09:25:47.223Z,6.60
2018-09-05T09:26:47.125Z,6.60
2018-09-05T09:27:47.271Z,6.50
2018-09-05T09:28:47.255Z,7.30
2018-09-05T09:29:47.139Z,7.30
2018-09-05T09:30:47.178Z,7.40
2018-09-05T09:31:47.164Z,7.80
2018-09-05T09:32:47.434Z,7.20
2018-09-05T09:33:47.217Z,7.10
2018-09-05T09:34:47.175Z,7.70
2018-09-05T09:35:47.188Z,7.10
2018-09-05T09:36:47.315Z,7.10
2018-09-05T09:37:47.347Z,7.60
2018-09-05T09:38:47.208Z,7.10
2018-09-05T09:39:47.348Z,7.20
2018-09-05T09:40:47.354Z,6.90
2018-09-05T09:41:47.231Z,6.90
2018-09-05T09:42:47.388Z,7.40
2018-09-05T09:43:47.275Z,7.10
2018-09-05T09:44:47.300Z,6.70
2018-09-05T09:45:47.282Z,7.10
2018-09-05T09:46:47.276Z,7.40
2018-09-05T09:47:47.449Z,7.20
2018-09-05T09:48:47.424Z,7.30
2018-09-05T09:49:47.300Z,7.20
2018-09-05T09:50:47.314Z,7.80
2018-09-05T09:51:47.316Z,7.30
2018-09-05T09:52:47.508Z,7.40
2018-09-05T09:53:47.347Z,7.50
2018-09-05T09:54:47.356Z,7.10
2018-09-05T09:55:47.493Z,6.90
2018-09-05T09:56:47.727Z,6.60
2018-09-05T09:57:47.397Z,7.10
2018-09-05T09:58:47.388Z,6.50
2018-09-05T09:59:47.520Z,6.80
2018-09-05T10:00:47.530Z,6.80
2018-09-05T10:01:47.574Z,6.80
2018-09-05T10:02:47.420Z,6.10
2018-09-05T10:03:47.722Z,7.20
2018-09-05T10:04:47.624Z,7.50
2018-09-05T10:05:47.447Z,6.70
2018-09-05T10:06:47.754Z,6.60
2018-09-05T10:07:47.509Z,7.40
2018-09-05T10:08:47.610Z,7.20
2018-09-05T10:09:47.534Z,7.90
2018-09-05T10:10:47.514Z,7.30
2018-09-05T10:11:47.670Z,7.00
2018-09-05T10:12:47.658Z,7.20
2018-09-05T10:13:47.551Z,7.00
2018-09-05T10:14:47.577Z,6.50
2018-09-05T10:15:47.564Z,6.00
2018-09-05T10:16:47.745Z,6.00
2018-09-05T10:17:47.583Z,6.30
2018-09-05T10:18:47.721Z,6.20
2018-09-05T10:19:47.732Z,6.60
2018-09-05T10:20:47.620Z,6.20
2018-09-05T10:21:47.807Z,6.80
2018-09-05T10:22:47.637Z,6.50
2018-09-05T10:23:47.840Z,6.40
2018-09-05T10:24:47.787Z,7.00
2018-09-05T10:25:47.668Z,6.70
2018-09-05T10:26:47.808Z,6.60
2018-09-05T10:27:47.822Z,6.60
2018-09-05T10:28:47.879Z,7.60
2018-09-05T10:29:47.726Z,6.40
2018-09-05T10:30:47.862Z,7.20
2018-09-05T10:31:47.803Z,7.30
2018-09-05T10:32:47.777Z,7.20
2018-09-05T10:33:47.771Z,7.00
2018-09-05T10:34:47.831Z,6.70
2018-09-05T10:35:47.793Z,6.80
2018-09-05T10:36:48.014Z,6.30
2018-09-05T10:37:47.855Z,5.90
2018-09-05T10:38:47.956Z,7.00
2018-09-05T10:39:47.848Z,7.30
2018-09-05T10:40:47.973Z,6.70
2018-09-05T10:41:48.137Z,6.80
2018-09-05T10:42:48.004Z,6.50
2018-09-05T10:43:47.905Z,6.90
2018-09-05T10:44:48.024Z,7.20
2018-09-05T10:45:47.910Z,7.20
2018-09-05T10:46:48.249Z,6.90
2018-09-05T10:47:47.940Z,6.40
2018-09-05T10:48:47.963Z,6.10
2018-09-05T10:49:48.082Z,6.40
2018-09-05T10:50:48.102Z,6.50
2018-09-05T10:51:48.231Z,6.70
2018-09-05T10:52:48.127Z,5.30
2018-09-05T10:53:48.024Z,5.90
2018-09-05T10:54:48.151Z,5.40
2018-09-05T10:55:48.037Z,5.90
2018-09-05T10:56:48.103Z,6.20
2018-09-05T10:57:48.064Z,5.30
2018-09-05T10:58:48.087Z,5.80
2018-09-05T10:59:48.103Z,5.60
2018-09-05T11:00:48.117Z,5.40
2018-09-05T11:01:48.267Z,6.50
2018-09-05T11:02:48.142Z,5.50
2018-09-05T11:03:48.275Z,5.80
2018-09-05T11:04:48.281Z,5.30
2018-09-05T11:05:48.172Z,4.90
2018-09-05T11:06:48.374Z,5.00
2018-09-05T11:07:48.197Z,4.90
2018-09-05T11:08:48.201Z,4.90
2018-09-05T11:09:48.220Z,4.50
2018-09-05T11:10:48.318Z,4.30
2018-09-05T11:11:48.428Z,4.60
2018-09-05T11:12:48.268Z,3.80
2018-09-05T11:13:48.557Z,3.80
2018-09-05T11:14:48.298Z,3.90
2018-09-05T11:15:48.308Z,4.10
2018-09-05T11:16:48.328Z,3.60
2018-09-05T11:17:48.341Z,4.60
2018-09-05T11:18:48.607Z,4.60
2018-09-05T11:19:48.361Z,4.20
2018-09-05T11:20:48.511Z,4.60
2018-09-05T11:21:48.387Z,4.10
2018-09-05T11:22:48.442Z,4.60
2018-09-05T11:23:48.700Z,3.80
2018-09-05T11:24:48.453Z,3.80
2018-09-05T11:25:48.449Z,3.40
2018-09-05T11:26:48.594Z,3.90
2018-09-05T11:27:48.641Z,3.20
2018-09-05T11:28:48.702Z,3.90
2018-09-05T11:29:48.629Z,4.30
2018-09-05T11:30:48.516Z,4.60
2018-09-05T11:31:48.660Z,4.00
2018-09-05T11:32:48.545Z,4.20
2018-09-05T11:33:48.753Z,4.60
2018-09-05T11:34:48.579Z,4.10
2018-09-05T11:35:48.593Z,3.80
2018-09-05T11:36:48.769Z,4.20
2018-09-05T11:37:48.625Z,3.50
2018-09-05T11:38:48.783Z,4.10
2018-09-05T11:39:48.645Z,4.20
2018-09-05T11:40:48.789Z,4.40
2018-09-05T11:41:48.666Z,5.10
2018-09-05T11:42:48.813Z,4.70
2018-09-05T11:43:48.965Z,4.80
2018-09-05T11:44:48.735Z,4.60
2018-09-05T11:45:48.729Z,4.40
2018-09-05T11:46:48.775Z,4.10
2018-09-05T11:47:48.762Z,4.30
2018-09-05T11:48:49.044Z,3.80
2018-09-05T11:49:48.798Z,3.60
2018-09-05T11:50:48.794Z,4.00
2018-09-05T11:51:48.940Z,3.60
2018-09-05T11:52:48.945Z,4.00
2018-09-05T11:53:48.983Z,3.70
2018-09-05T11:54:48.856Z,2.90
2018-09-05T11:55:48.862Z,4.40
2018-09-05T11:56:48.873Z,3.30
2018-09-05T11:57:49.013Z,3.60
2018-09-05T11:58:49.174Z,3.30
2018-09-05T11:59:48.909Z,3.40
2018-09-05T12:00:48.926Z,3.40
2018-09-05T12:01:49.071Z,3.40
2018-09-05T12:02:48.951Z,3.40
2018-09-05T12:03:49.119Z,4.00
2018-09-05T12:04:49.120Z,3.70
2018-09-05T12:05:49.123Z,3.40
2018-09-05T12:06:49.074Z,3.20
2018-09-05T12:07:49.020Z,3.20
2018-09-05T12:08:49.188Z,3.50
2018-09-05T12:09:49.049Z,3.50
2018-09-05T12:10:49.105Z,3.40
2018-09-05T12:11:49.206Z,3.80
2018-09-05T12:12:49.105Z,3.10
2018-09-05T12:13:49.301Z,3.90
2018-09-05T12:14:49.119Z,4.00
2018-09-05T12:15:49.260Z,3.80
2018-09-05T12:16:49.146Z,3.10
2018-09-05T12:17:49.166Z,3.50
2018-09-05T12:18:49.315Z,3.50
2018-09-05T12:19:49.179Z,3.60
2018-09-05T12:20:49.324Z,3.40
2018-09-05T12:21:49.343Z,3.50
2018-09-05T12:22:49.278Z,3.40
2018-09-05T12:23:49.398Z,2.90
2018-09-05T12:24:49.258Z,3.10
2018-09-05T12:25:49.287Z,3.40
2018-09-05T12:26:49.291Z,3.10
2018-09-05T12:27:49.339Z,3.00
2018-09-05T12:28:49.476Z,4.00
2018-09-05T12:29:49.320Z,3.30
2018-09-05T12:30:49.350Z,3.00
2018-09-05T12:31:49.493Z,3.40
2018-09-05T12:32:49.506Z,3.30
2018-09-05T12:33:49.768Z,3.80
2018-09-05T12:34:49.406Z,3.70
2018-09-05T12:35:49.543Z,3.50
2018-09-05T12:36:49.432Z,3.90
2018-09-05T12:37:49.470Z,4.50
2018-09-05T12:38:49.722Z,4.90
2018-09-05T12:39:49.466Z,4.30
2018-09-05T12:40:49.512Z,4.90
2018-09-05T12:41:49.502Z,4.60
2018-09-05T12:42:49.526Z,4.60
2018-09-05T12:43:49.786Z,5.00
2018-09-05T12:44:49.630Z,5.00
2018-09-05T12:45:49.553Z,4.60
2018-09-05T12:46:49.585Z,4.90
2018-09-05T12:47:49.596Z,4.40
2018-09-05T12:48:49.609Z,5.00
2018-09-05T12:49:49.669Z,4.50
2018-09-05T12:50:49.655Z,4.60
2018-09-05T12:51:49.685Z,4.00
2018-09-05T12:52:49.675Z,4.20
2018-09-05T12:53:49.800Z,4.10
2018-09-05T12:54:49.967Z,4.60
2018-09-05T12:55:49.702Z,4.50
2018-09-05T12:56:49.846Z,4.30
2018-09-05T12:57:49.854Z,5.10
2018-09-05T12:58:49.730Z,4.90
2018-09-05T12:59:49.908Z,4.70
2018-09-05T13:00:49.775Z,5.20
2018-09-05T13:01:49.777Z,5.70
2018-09-05T13:02:49.930Z,5.50
2018-09-05T13:03:49.817Z,5.50
2018-09-05T13:04:49.973Z,6.40
2018-09-05T13:05:49.848Z,5.20
2018-09-05T13:06:49.973Z,4.60
2018-09-05T13:07:49.864Z,4.80
2018-09-05T13:08:49.888Z,5.20
2018-09-05T13:09:50.046Z,4.30
2018-09-05T13:10:49.912Z,4.60
2018-09-05T13:11:49.923Z,5.00
2018-09-05T13:12:49.972Z,4.50
2018-09-05T13:13:50.068Z,4.80
2018-09-05T13:14:50.206Z,4.60
2018-09-05T13:15:49.981Z,4.30
2018-09-05T13:16:50.003Z,3.60
2018-09-05T13:17:50.124Z,3.80
2018-09-05T13:18:50.011Z,3.80
2018-09-05T13:19:50.177Z,4.00
2018-09-05T13:20:50.170Z,4.20
2018-09-05T13:21:50.069Z,4.20
2018-09-05T13:22:50.081Z,3.30
2018-09-05T13:23:50.086Z,3.60
2018-09-05T13:24:50.303Z,4.00
2018-09-05T13:25:50.236Z,4.10
2018-09-05T13:26:50.155Z,4.40